Sukkur Weather



Sukkur's Current Weather

Temprature 40o haze

haze

Rain: 0 %

Min Temprature40o
Max Temprature40o
Humidity25
Wind Speed3.09 m/h
Sun Rise05:39:55
Sun Set19:02:13
Current Time: 08-May-2021 15:56:37
Lat/Lon: 27.7052, 68.8574




Sukkur's Geo Location



Sukkur's Weather Forecast

Time Overall Temp Min Temp Max Temp Humidity Wind Speed Rain
08-May-2021 (Sat)
17:00:00 scattered clouds 40.000 35.700 40.000 25 10.01 m/h 0 %
20:00:00 broken clouds 38.130 34.380 38.130 24 7.45 m/h 0 %
23:00:00 broken clouds 35.040 32.560 35.040 27 5.41 m/h 0 %
09-May-2021 (Sun)
02:00:00 scattered clouds 31.160 31.160 31.160 28 3.73 m/h 0 %
05:00:00 scattered clouds 30.210 30.210 30.210 29 2.28 m/h 0 %
08:00:00 scattered clouds 34.460 34.460 34.460 23 2.67 m/h 0 %
11:00:00 scattered clouds 40.490 40.490 40.490 14 3.52 m/h 0 %
14:00:00 clear sky 42.990 42.990 42.990 10 4.3 m/h 0 %
17:00:00 few clouds 42.660 42.660 42.660 9 4.11 m/h 0 %
20:00:00 clear sky 36.900 36.900 36.900 16 3.31 m/h 0 %
23:00:00 few clouds 33.170 33.170 33.170 25 4.84 m/h 0 %
10-May-2021 (Mon)
02:00:00 overcast clouds 32.320 32.320 32.320 25 5.13 m/h 0 %
05:00:00 overcast clouds 30.500 30.500 30.500 31 3.69 m/h 0 %
08:00:00 overcast clouds 33.640 33.640 33.640 25 4.51 m/h 0 %
11:00:00 broken clouds 39.170 39.170 39.170 16 2.54 m/h 0 %
14:00:00 clear sky 42.560 42.560 42.560 11 2.93 m/h 0 %
17:00:00 clear sky 42.590 42.590 42.590 10 2.5 m/h 0 %
20:00:00 clear sky 39.130 39.130 39.130 13 2.3 m/h 0 %
23:00:00 clear sky 35.840 35.840 35.840 19 4.55 m/h 0 %
11-May-2021 (Tue)
02:00:00 clear sky 33.750 33.750 33.750 24 1.02 m/h 0 %
05:00:00 clear sky 31.720 31.720 31.720 28 2.9 m/h 0 %
08:00:00 clear sky 35.170 35.170 35.170 22 1.52 m/h 0 %
11:00:00 clear sky 41.130 41.130 41.130 13 0.7 m/h 0 %
14:00:00 clear sky 43.910 43.910 43.910 9 2.01 m/h 0 %
17:00:00 few clouds 43.970 43.970 43.970 8 3.11 m/h 0 %
20:00:00 light rain 37.020 37.020 37.020 17 6.69 m/h 14 %
23:00:00 broken clouds 36.050 36.050 36.050 18 2.56 m/h 0 %
12-May-2021 (Wed)
02:00:00 overcast clouds 34.360 34.360 34.360 20 3.38 m/h 0 %
05:00:00 broken clouds 32.780 32.780 32.780 19 2.7 m/h 0 %
08:00:00 clear sky 36.790 36.790 36.790 10 3.44 m/h 0 %
11:00:00 clear sky 41.270 41.270 41.270 6 2.59 m/h 0 %
14:00:00 clear sky 43.390 43.390 43.390 6 2.04 m/h 0 %
17:00:00 clear sky 43.440 43.440 43.440 5 2.46 m/h 0 %
20:00:00 clear sky 39.070 39.070 39.070 6 3.78 m/h 0 %
23:00:00 clear sky 35.760 35.760 35.760 10 3.92 m/h 0 %
13-May-2021 (Thu)
02:00:00 clear sky 31.540 31.540 31.540 28 6.83 m/h 0 %
05:00:00 clear sky 28.680 28.680 28.680 43 6.42 m/h 0 %
08:00:00 clear sky 31.270 31.270 31.270 38 7.82 m/h 0 %
11:00:00 clear sky 37.870 37.870 37.870 22 5.88 m/h 0 %
14:00:00 clear sky 41.640 41.640 41.640 11 4.23 m/h 0 %

Famous Cities (60)